createdAt,value
2023-04-30T00:01:46.056Z,20.98
2023-04-30T00:06:48.718Z,17.50
2023-04-30T00:11:51.360Z,20.92
2023-04-30T00:16:55.405Z,20.60
2023-04-30T00:21:58.260Z,20.50
2023-04-30T00:27:00.883Z,18.25
2023-04-30T00:32:05.120Z,22.70
2023-04-30T00:37:07.781Z,18.90
2023-04-30T00:42:10.462Z,19.38
2023-04-30T00:47:14.444Z,19.63
2023-04-30T00:52:17.391Z,19.25
2023-04-30T00:57:21.546Z,15.63
2023-04-30T01:02:25.812Z,13.17
2023-04-30T01:07:28.591Z,13.47
2023-04-30T01:12:38.601Z,12.23
2023-04-30T01:17:49.238Z,10.53
2023-04-30T01:22:58.402Z,9.93
2023-04-30T01:28:09.249Z,10.33
2023-04-30T01:33:12.146Z,13.07
2023-04-30T01:38:26.895Z,10.90
2023-04-30T01:43:40.381Z,11.37
2023-04-30T01:48:49.259Z,12.83
2023-04-30T01:53:57.201Z,12.30
2023-04-30T01:59:02.380Z,10.37
2023-04-30T02:04:05.304Z,12.57
2023-04-30T02:09:08.184Z,16.43
2023-04-30T02:14:12.151Z,18.17
2023-04-30T02:19:14.814Z,15.57
2023-04-30T02:24:17.438Z,17.27
2023-04-30T02:29:21.433Z,14.90
2023-04-30T02:34:24.366Z,15.97
2023-04-30T02:39:27.022Z,14.80
2023-04-30T02:44:31.211Z,13.43
2023-04-30T02:49:33.903Z,12.07
2023-04-30T02:54:36.678Z,15.03
2023-04-30T02:59:40.637Z,13.67
2023-04-30T03:04:43.300Z,12.53
2023-04-30T03:09:46.519Z,14.00
2023-04-30T03:14:50.605Z,12.87
2023-04-30T03:19:53.587Z,10.23
2023-04-30T03:24:56.575Z,9.07
2023-04-30T03:30:00.582Z,12.17
2023-04-30T03:35:03.881Z,11.10
2023-04-30T03:40:07.976Z,9.80
2023-04-30T03:45:12.451Z,9.57
2023-04-30T03:50:15.148Z,11.80
2023-04-30T03:55:18.511Z,13.30
2023-04-30T04:00:22.698Z,9.67
2023-04-30T04:05:25.349Z,8.53
2023-04-30T04:10:28.037Z,11.10
2023-04-30T04:15:31.997Z,9.60
2023-04-30T04:20:34.602Z,11.47
2023-04-30T04:25:37.229Z,7.00
2023-04-30T04:30:41.254Z,7.60
2023-04-30T04:35:43.897Z,7.80
2023-04-30T04:40:53.072Z,8.70
2023-04-30T04:45:57.192Z,9.70
2023-04-30T04:50:59.848Z,8.60
2023-04-30T04:56:02.520Z,12.70
2023-04-30T05:01:06.647Z,8.63
2023-04-30T05:06:09.335Z,8.37
2023-04-30T05:11:14.154Z,6.97
2023-04-30T05:16:19.510Z,10.53
2023-04-30T05:21:22.999Z,8.70
2023-04-30T05:26:25.719Z,8.50
2023-04-30T05:31:29.693Z,7.93
2023-04-30T05:36:32.490Z,5.80
2023-04-30T05:41:35.212Z,8.17
2023-04-30T05:46:39.179Z,12.50
2023-04-30T05:51:42.382Z,7.37
2023-04-30T05:56:45.098Z,6.23
2023-04-30T06:01:49.201Z,8.97
2023-04-30T06:06:51.939Z,8.40
2023-04-30T06:11:55.760Z,9.47
2023-04-30T06:16:59.829Z,8.03
2023-04-30T06:22:02.573Z,13.23
2023-04-30T06:27:05.484Z,5.97
2023-04-30T06:32:09.481Z,11.40
2023-04-30T06:37:12.172Z,7.07
2023-04-30T06:42:14.805Z,9.20
2023-04-30T06:47:18.810Z,7.83
2023-04-30T06:52:21.550Z,9.20
2023-04-30T06:57:24.683Z,10.13
2023-04-30T07:02:28.820Z,7.50
2023-04-30T07:07:32.423Z,7.17
2023-04-30T07:12:35.130Z,8.63
2023-04-30T07:17:39.840Z,8.63
2023-04-30T07:22:44.719Z,12.23
2023-04-30T07:27:47.399Z,6.60
2023-04-30T07:32:51.547Z,7.07
2023-04-30T07:37:54.312Z,7.37
2023-04-30T07:42:56.948Z,5.43
2023-04-30T07:48:00.981Z,7.38
2023-04-30T07:53:04.985Z,6.25
2023-04-30T07:58:07.816Z,7.28
2023-04-30T08:03:12.184Z,11.18
2023-04-30T08:08:14.998Z,9.25
2023-04-30T08:13:17.652Z,6.82
2023-04-30T08:18:22.212Z,11.75
2023-04-30T08:23:24.861Z,7.30
2023-04-30T08:28:27.671Z,9.98
2023-04-30T08:33:32.114Z,8.40
2023-04-30T08:38:34.832Z,6.72
2023-04-30T08:43:37.572Z,7.25
2023-04-30T08:48:42.365Z,8.27
2023-04-30T08:53:46.379Z,9.90
2023-04-30T08:58:50.072Z,6.13
2023-04-30T09:03:54.218Z,7.35
2023-04-30T09:08:57.019Z,7.78
2023-04-30T09:14:01.900Z,8.40
2023-04-30T09:19:05.993Z,6.75
2023-04-30T09:24:08.674Z,6.25
2023-04-30T09:29:11.805Z,3.78
2023-04-30T09:34:16.053Z,6.40
2023-04-30T09:39:18.902Z,8.18
2023-04-30T09:44:28.153Z,7.10
2023-04-30T09:49:32.224Z,6.65
2023-04-30T09:54:35.162Z,5.10
2023-04-30T09:59:44.938Z,6.38
2023-04-30T10:05:02.497Z,4.57
2023-04-30T10:10:11.669Z,3.83
2023-04-30T10:15:23.044Z,10.40
2023-04-30T10:20:28.866Z,6.57
2023-04-30T10:25:31.971Z,4.57
2023-04-30T10:30:40.212Z,6.53
2023-04-30T10:35:48.384Z,6.50
2023-04-30T10:40:54.101Z,4.32
2023-04-30T10:45:59.734Z,3.42
2023-04-30T10:51:05.636Z,6.65
2023-04-30T10:56:09.679Z,4.28
2023-04-30T11:01:17.539Z,4.20
2023-04-30T11:06:27.299Z,3.72
2023-04-30T11:11:35.622Z,5.82
2023-04-30T11:16:38.560Z,5.93
2023-04-30T11:22:15.030Z,4.47
2023-04-30T11:27:22.060Z,4.07
2023-04-30T11:32:35.270Z,5.05
2023-04-30T11:37:40.462Z,7.25
2023-04-30T11:42:46.600Z,3.58
2023-04-30T11:47:52.584Z,3.97
2023-04-30T11:53:02.176Z,6.97
2023-04-30T11:58:10.649Z,3.72
2023-04-30T12:03:16.223Z,4.95
2023-04-30T12:08:20.755Z,3.85
2023-04-30T12:13:24.942Z,4.78
2023-04-30T12:18:27.891Z,3.88
2023-04-30T12:23:31.905Z,4.15
2023-04-30T12:28:36.599Z,7.40
2023-04-30T12:33:39.302Z,2.35
2023-04-30T12:38:47.082Z,8.90
2023-04-30T12:43:50.031Z,7.28
2023-04-30T12:48:52.867Z,4.03
2023-04-30T12:53:56.951Z,4.30
2023-04-30T12:59:00.571Z,4.82
2023-04-30T13:04:06.717Z,4.63
2023-04-30T13:09:12.862Z,4.68
2023-04-30T13:14:17.970Z,6.93
2023-04-30T13:19:21.249Z,5.25
2023-04-30T13:24:26.546Z,2.95
2023-04-30T13:29:32.274Z,4.35
2023-04-30T13:34:35.789Z,4.82
2023-04-30T13:39:40.440Z,5.22
2023-04-30T13:44:45.334Z,5.25
2023-04-30T13:49:48.049Z,5.68
2023-04-30T13:54:53.040Z,4.28
2023-04-30T13:59:56.132Z,3.13
2023-04-30T14:05:05.834Z,4.18
2023-04-30T14:10:11.367Z,3.38
2023-04-30T14:15:14.777Z,2.60
2023-04-30T14:20:17.508Z,3.10
2023-04-30T14:25:21.594Z,2.78
2023-04-30T14:30:33.096Z,3.17
2023-04-30T14:35:40.063Z,3.95
2023-04-30T14:40:45.647Z,3.92
2023-04-30T14:45:49.350Z,2.03
2023-04-30T14:50:52.941Z,2.60
2023-04-30T14:56:03.720Z,4.75
2023-04-30T15:01:07.046Z,3.38
2023-04-30T15:06:14.497Z,3.78
2023-04-30T15:11:18.508Z,2.58
2023-04-30T15:16:21.213Z,4.63
2023-04-30T15:21:24.007Z,2.22
2023-04-30T15:26:29.572Z,2.05
2023-04-30T15:31:32.773Z,3.28
2023-04-30T15:36:35.758Z,4.13
2023-04-30T15:41:39.886Z,2.92
2023-04-30T15:46:42.920Z,4.43
2023-04-30T15:51:46.238Z,4.20
2023-04-30T15:56:51.744Z,4.57
2023-04-30T16:01:54.683Z,4.68
2023-04-30T16:06:57.574Z,3.13
2023-04-30T16:12:01.536Z,5.93
2023-04-30T16:17:04.463Z,4.63
2023-04-30T16:22:08.935Z,6.25
2023-04-30T16:27:12.892Z,3.60
2023-04-30T16:32:15.886Z,6.25
2023-04-30T16:37:18.552Z,3.92
2023-04-30T16:42:22.502Z,5.05
2023-04-30T16:47:25.318Z,3.63
2023-04-30T16:52:29.625Z,3.08
2023-04-30T16:57:33.701Z,9.85
2023-04-30T17:02:36.961Z,4.18
2023-04-30T17:07:39.693Z,4.70
2023-04-30T17:12:44.261Z,3.47
2023-04-30T17:17:47.088Z,6.03
2023-04-30T17:22:50.778Z,7.35
2023-04-30T17:27:55.342Z,9.73
2023-04-30T17:33:00.227Z,4.63
2023-04-30T17:38:03.306Z,3.17
2023-04-30T17:43:08.517Z,5.35
2023-04-30T17:48:11.493Z,7.40
2023-04-30T17:53:14.302Z,6.50
2023-04-30T17:58:18.305Z,5.63
2023-04-30T18:03:21.077Z,6.78
2023-04-30T18:08:23.794Z,5.38
2023-04-30T18:13:27.900Z,4.80
2023-04-30T18:18:30.940Z,4.68
2023-04-30T18:23:33.636Z,7.70
2023-04-30T18:28:37.745Z,6.57
2023-04-30T18:33:40.446Z,6.30
2023-04-30T18:38:44.509Z,7.97
2023-04-30T18:43:48.921Z,10.10
2023-04-30T18:48:51.545Z,10.38
2023-04-30T18:53:54.153Z,6.07
2023-04-30T18:58:58.120Z,9.68
2023-04-30T19:04:01.617Z,8.27
2023-04-30T19:09:04.761Z,12.07
2023-04-30T19:14:08.809Z,10.63
2023-04-30T19:19:11.551Z,13.25
2023-04-30T19:24:14.205Z,17.35
2023-04-30T19:29:18.488Z,18.30
2023-04-30T19:34:21.144Z,17.58
2023-04-30T19:39:23.914Z,16.35
2023-04-30T19:44:29.302Z,11.75
2023-04-30T19:49:32.998Z,13.63
2023-04-30T19:54:35.741Z,10.43
2023-04-30T20:00:26.603Z,18.20
2023-04-30T20:17:48.162Z,40.95
2023-04-30T20:41:37.988Z,31.03
2023-04-30T20:47:19.199Z,28.63
2023-04-30T20:53:43.355Z,28.37
2023-04-30T20:58:48.674Z,31.23
2023-04-30T21:03:51.496Z,31.67
2023-04-30T21:08:54.226Z,33.77
2023-04-30T21:13:58.419Z,30.60
2023-04-30T21:19:01.171Z,34.47
2023-04-30T21:24:05.365Z,33.67
2023-04-30T21:29:11.043Z,31.23
2023-04-30T21:34:13.740Z,34.13
2023-04-30T21:39:17.168Z,33.87
2023-04-30T21:44:21.846Z,34.83
2023-04-30T21:49:24.662Z,33.73
2023-04-30T21:54:27.330Z,31.43
2023-04-30T21:59:31.336Z,38.27
2023-04-30T22:04:34.317Z,32.40
2023-04-30T22:09:37.034Z,29.80
2023-04-30T22:14:40.994Z,33.53
2023-04-30T22:19:43.643Z,32.37
2023-04-30T22:24:48.930Z,27.20
2023-04-30T22:29:53.185Z,29.43
2023-04-30T22:34:56.582Z,32.43
2023-04-30T22:39:59.291Z,41.13
2023-04-30T22:45:03.401Z,32.90
2023-04-30T22:50:08.215Z,34.67
2023-04-30T22:55:11.696Z,29.63
2023-04-30T23:00:18.170Z,27.50
2023-04-30T23:05:21.060Z,24.57
2023-04-30T23:10:23.750Z,26.73
2023-04-30T23:15:27.829Z,27.97
2023-04-30T23:20:30.504Z,24.57
2023-04-30T23:25:33.666Z,28.80
2023-04-30T23:30:39.963Z,26.20
2023-04-30T23:35:43.579Z,23.60
2023-04-30T23:40:46.247Z,27.77
2023-04-30T23:45:50.226Z,25.57
2023-04-30T23:50:59.464Z,26.47
2023-04-30T23:56:02.473Z,28.83
